sensor_id;sensor_type;location;lat;lon;timestamp;temperature;humidity
28524;DHT22;15734;50.904;6.922;2023-04-03T00:00:29;5.00;99.90
28524;DHT22;15734;50.904;6.922;2023-04-03T00:02:54;5.10;99.90
28524;DHT22;15734;50.904;6.922;2023-04-03T00:05:20;5.10;99.90
28524;DHT22;15734;50.904;6.922;2023-04-03T00:07:45;5.10;99.90
28524;DHT22;15734;50.904;6.922;2023-04-03T00:10:11;5.10;99.90
28524;DHT22;15734;50.904;6.922;2023-04-03T00:12:37;5.10;99.90
28524;DHT22;15734;50.904;6.922;2023-04-03T00:15:02;5.00;99.90
28524;DHT22;15734;50.904;6.922;2023-04-03T00:17:28;5.00;99.90
28524;DHT22;15734;50.904;6.922;2023-04-03T00:19:53;5.00;99.90
28524;DHT22;15734;50.904;6.922;2023-04-03T00:22:18;5.00;99.90
28524;DHT22;15734;50.904;6.922;2023-04-03T00:24:44;5.00;99.90
28524;DHT22;15734;50.904;6.922;2023-04-03T00:27:10;5.00;99.90
28524;DHT22;15734;50.904;6.922;2023-04-03T00:29:36;5.00;99.90
28524;DHT22;15734;50.904;6.922;2023-04-03T00:32:01;5.00;99.90
28524;DHT22;15734;50.904;6.922;2023-04-03T00:34:27;5.10;99.90
28524;DHT22;15734;50.904;6.922;2023-04-03T00:36:53;5.00;99.90
28524;DHT22;15734;50.904;6.922;2023-04-03T00:39:18;5.00;99.90
28524;DHT22;15734;50.904;6.922;2023-04-03T00:41:43;5.00;99.90
28524;DHT22;15734;50.904;6.922;2023-04-03T00:44:19;5.00;99.90
28524;DHT22;15734;50.904;6.922;2023-04-03T00:46:45;5.00;99.90
28524;DHT22;15734;50.904;6.922;2023-04-03T00:49:10;5.00;99.90
28524;DHT22;15734;50.904;6.922;2023-04-03T00:51:36;5.00;99.90
28524;DHT22;15734;50.904;6.922;2023-04-03T00:54:02;4.90;99.90
28524;DHT22;15734;50.904;6.922;2023-04-03T00:56:30;4.90;99.90
28524;DHT22;15734;50.904;6.922;2023-04-03T00:59:18;4.80;99.90
28524;DHT22;15734;50.904;6.922;2023-04-03T01:01:42;4.80;99.90
28524;DHT22;15734;50.904;6.922;2023-04-03T01:06:52;4.80;99.90
28524;DHT22;15734;50.904;6.922;2023-04-03T01:09:17;4.80;99.90
28524;DHT22;15734;50.904;6.922;2023-04-03T01:11:43;4.80;99.90
28524;DHT22;15734;50.904;6.922;2023-04-03T01:14:08;4.70;99.90
28524;DHT22;15734;50.904;6.922;2023-04-03T01:16:34;4.60;99.90
28524;DHT22;15734;50.904;6.922;2023-04-03T01:19:00;4.60;99.90
28524;DHT22;15734;50.904;6.922;2023-04-03T01:24:04;4.50;99.90
28524;DHT22;15734;50.904;6.922;2023-04-03T01:26:34;4.50;99.90
28524;DHT22;15734;50.904;6.922;2023-04-03T01:29:00;4.50;99.90
28524;DHT22;15734;50.904;6.922;2023-04-03T01:31:27;4.40;99.90
28524;DHT22;15734;50.904;6.922;2023-04-03T01:33:54;4.40;99.90
28524;DHT22;15734;50.904;6.922;2023-04-03T01:36:21;4.40;99.90
28524;DHT22;15734;50.904;6.922;2023-04-03T01:38:47;4.30;99.90
28524;DHT22;15734;50.904;6.922;2023-04-03T01:41:13;4.30;99.90
28524;DHT22;15734;50.904;6.922;2023-04-03T01:43:38;4.30;99.90
28524;DHT22;15734;50.904;6.922;2023-04-03T01:46:04;4.20;99.90
28524;DHT22;15734;50.904;6.922;2023-04-03T01:48:30;4.30;99.90
28524;DHT22;15734;50.904;6.922;2023-04-03T01:50:55;4.20;99.90
28524;DHT22;15734;50.904;6.922;2023-04-03T01:53:21;4.10;99.90
28524;DHT22;15734;50.904;6.922;2023-04-03T01:55:46;3.90;99.90
28524;DHT22;15734;50.904;6.922;2023-04-03T01:58:12;3.80;99.90
28524;DHT22;15734;50.904;6.922;2023-04-03T02:00:37;3.70;99.90
28524;DHT22;15734;50.904;6.922;2023-04-03T02:03:03;3.70;99.90
28524;DHT22;15734;50.904;6.922;2023-04-03T02:05:28;3.70;99.90
28524;DHT22;15734;50.904;6.922;2023-04-03T02:07:54;3.70;99.90
28524;DHT22;15734;50.904;6.922;2023-04-03T02:10:19;3.70;99.90
28524;DHT22;15734;50.904;6.922;2023-04-03T02:12:44;3.70;99.90
28524;DHT22;15734;50.904;6.922;2023-04-03T02:15:10;3.80;99.90
28524;DHT22;15734;50.904;6.922;2023-04-03T02:17:36;3.80;99.90
28524;DHT22;15734;50.904;6.922;2023-04-03T02:20:02;3.80;99.90
28524;DHT22;15734;50.904;6.922;2023-04-03T02:22:28;3.80;99.90
28524;DHT22;15734;50.904;6.922;2023-04-03T02:24:53;3.70;99.90
28524;DHT22;15734;50.904;6.922;2023-04-03T02:27:19;3.70;99.90
28524;DHT22;15734;50.904;6.922;2023-04-03T02:29:45;3.80;99.90
28524;DHT22;15734;50.904;6.922;2023-04-03T02:32:10;3.70;99.90
28524;DHT22;15734;50.904;6.922;2023-04-03T02:34:36;3.70;99.90
28524;DHT22;15734;50.904;6.922;2023-04-03T02:37:01;3.60;99.90
28524;DHT22;15734;50.904;6.922;2023-04-03T02:39:27;3.60;99.90
28524;DHT22;15734;50.904;6.922;2023-04-03T02:41:52;3.60;99.90
28524;DHT22;15734;50.904;6.922;2023-04-03T02:44:18;3.60;99.90
28524;DHT22;15734;50.904;6.922;2023-04-03T02:46:44;3.60;99.90
28524;DHT22;15734;50.904;6.922;2023-04-03T02:49:09;3.60;99.90
28524;DHT22;15734;50.904;6.922;2023-04-03T02:51:35;3.60;99.90
28524;DHT22;15734;50.904;6.922;2023-04-03T02:54:00;3.70;99.90
28524;DHT22;15734;50.904;6.922;2023-04-03T02:56:26;3.70;99.90
28524;DHT22;15734;50.904;6.922;2023-04-03T02:58:52;3.70;99.90
28524;DHT22;15734;50.904;6.922;2023-04-03T03:01:17;3.70;99.90
28524;DHT22;15734;50.904;6.922;2023-04-03T03:03:43;3.70;99.90
28524;DHT22;15734;50.904;6.922;2023-04-03T03:06:09;3.50;99.90
28524;DHT22;15734;50.904;6.922;2023-04-03T03:08:36;3.40;99.90
28524;DHT22;15734;50.904;6.922;2023-04-03T03:11:01;3.30;99.90
28524;DHT22;15734;50.904;6.922;2023-04-03T03:13:27;3.00;99.90
28524;DHT22;15734;50.904;6.922;2023-04-03T03:15:53;2.90;99.90
28524;DHT22;15734;50.904;6.922;2023-04-03T03:18:18;2.80;99.90
28524;DHT22;15734;50.904;6.922;2023-04-03T03:20:44;2.70;99.90
28524;DHT22;15734;50.904;6.922;2023-04-03T03:23:09;2.60;99.90
28524;DHT22;15734;50.904;6.922;2023-04-03T03:25:38;2.60;99.90
28524;DHT22;15734;50.904;6.922;2023-04-03T03:28:04;2.70;99.90
28524;DHT22;15734;50.904;6.922;2023-04-03T03:30:29;2.80;99.90
28524;DHT22;15734;50.904;6.922;2023-04-03T03:32:55;2.80;99.90
28524;DHT22;15734;50.904;6.922;2023-04-03T03:35:21;2.80;99.90
28524;DHT22;15734;50.904;6.922;2023-04-03T03:37:46;2.80;99.90
28524;DHT22;15734;50.904;6.922;2023-04-03T03:40:12;2.90;99.90
28524;DHT22;15734;50.904;6.922;2023-04-03T03:42:38;2.90;99.90
28524;DHT22;15734;50.904;6.922;2023-04-03T03:45:04;3.00;99.90
28524;DHT22;15734;50.904;6.922;2023-04-03T03:47:30;3.00;99.90
28524;DHT22;15734;50.904;6.922;2023-04-03T03:49:55;3.10;99.90
28524;DHT22;15734;50.904;6.922;2023-04-03T03:52:21;3.20;99.90
28524;DHT22;15734;50.904;6.922;2023-04-03T03:54:46;3.20;99.90
28524;DHT22;15734;50.904;6.922;2023-04-03T03:57:12;3.30;99.90
28524;DHT22;15734;50.904;6.922;2023-04-03T03:59:37;3.40;99.90
28524;DHT22;15734;50.904;6.922;2023-04-03T04:02:03;3.40;99.90
28524;DHT22;15734;50.904;6.922;2023-04-03T04:04:28;3.40;99.90
28524;DHT22;15734;50.904;6.922;2023-04-03T04:06:54;3.30;99.90
28524;DHT22;15734;50.904;6.922;2023-04-03T04:09:19;3.30;99.90
28524;DHT22;15734;50.904;6.922;2023-04-03T04:11:45;3.20;99.90
28524;DHT22;15734;50.904;6.922;2023-04-03T04:14:10;3.20;99.90
28524;DHT22;15734;50.904;6.922;2023-04-03T04:16:37;3.20;99.90
28524;DHT22;15734;50.904;6.922;2023-04-03T04:19:03;3.10;99.90
28524;DHT22;15734;50.904;6.922;2023-04-03T04:21:28;3.20;99.90
28524;DHT22;15734;50.904;6.922;2023-04-03T04:23:54;3.10;99.90
28524;DHT22;15734;50.904;6.922;2023-04-03T04:26:19;3.20;99.90
28524;DHT22;15734;50.904;6.922;2023-04-03T04:28:46;3.20;99.90
28524;DHT22;15734;50.904;6.922;2023-04-03T04:31:11;3.10;99.90
28524;DHT22;15734;50.904;6.922;2023-04-03T04:33:37;3.10;99.90
28524;DHT22;15734;50.904;6.922;2023-04-03T04:36:02;3.10;99.90
28524;DHT22;15734;50.904;6.922;2023-04-03T04:38:28;3.10;99.90
28524;DHT22;15734;50.904;6.922;2023-04-03T04:40:53;3.10;99.90
28524;DHT22;15734;50.904;6.922;2023-04-03T04:43:19;3.10;99.90
28524;DHT22;15734;50.904;6.922;2023-04-03T04:45:44;3.10;99.90
28524;DHT22;15734;50.904;6.922;2023-04-03T04:48:10;3.00;99.90
28524;DHT22;15734;50.904;6.922;2023-04-03T04:50:35;3.00;99.90
28524;DHT22;15734;50.904;6.922;2023-04-03T04:53:01;3.00;99.90
28524;DHT22;15734;50.904;6.922;2023-04-03T04:55:26;2.90;99.90
28524;DHT22;15734;50.904;6.922;2023-04-03T04:57:52;3.00;99.90
28524;DHT22;15734;50.904;6.922;2023-04-03T05:00:17;3.00;99.90
28524;DHT22;15734;50.904;6.922;2023-04-03T05:02:43;2.90;99.90
28524;DHT22;15734;50.904;6.922;2023-04-03T05:05:08;2.90;99.90
28524;DHT22;15734;50.904;6.922;2023-04-03T05:07:34;2.90;99.90
28524;DHT22;15734;50.904;6.922;2023-04-03T05:10:01;2.90;99.90
28524;DHT22;15734;50.904;6.922;2023-04-03T05:12:27;2.90;99.90
28524;DHT22;15734;50.904;6.922;2023-04-03T05:14:53;2.90;99.90
28524;DHT22;15734;50.904;6.922;2023-04-03T05:17:18;2.90;99.90
28524;DHT22;15734;50.904;6.922;2023-04-03T05:19:44;2.90;99.90
28524;DHT22;15734;50.904;6.922;2023-04-03T05:22:09;2.90;99.90
28524;DHT22;15734;50.904;6.922;2023-04-03T05:24:35;2.80;99.90
28524;DHT22;15734;50.904;6.922;2023-04-03T05:27:00;2.90;99.90
28524;DHT22;15734;50.904;6.922;2023-04-03T05:29:26;2.90;99.90
28524;DHT22;15734;50.904;6.922;2023-04-03T05:31:51;2.90;99.90
28524;DHT22;15734;50.904;6.922;2023-04-03T05:34:17;2.80;99.90
28524;DHT22;15734;50.904;6.922;2023-04-03T05:36:42;2.90;99.90
28524;DHT22;15734;50.904;6.922;2023-04-03T05:39:08;2.90;99.90
28524;DHT22;15734;50.904;6.922;2023-04-03T05:41:33;2.90;99.90
28524;DHT22;15734;50.904;6.922;2023-04-03T05:43:59;2.90;99.90
28524;DHT22;15734;50.904;6.922;2023-04-03T05:46:24;2.90;99.90
28524;DHT22;15734;50.904;6.922;2023-04-03T05:48:50;2.80;99.90
28524;DHT22;15734;50.904;6.922;2023-04-03T05:51:21;2.90;99.90
28524;DHT22;15734;50.904;6.922;2023-04-03T05:53:47;2.90;99.90
28524;DHT22;15734;50.904;6.922;2023-04-03T05:56:13;3.00;99.90
28524;DHT22;15734;50.904;6.922;2023-04-03T05:58:39;3.00;99.90
28524;DHT22;15734;50.904;6.922;2023-04-03T06:01:04;3.00;99.90
28524;DHT22;15734;50.904;6.922;2023-04-03T06:03:30;3.00;99.90
28524;DHT22;15734;50.904;6.922;2023-04-03T06:05:56;3.00;99.90
28524;DHT22;15734;50.904;6.922;2023-04-03T06:08:22;3.00;99.90
28524;DHT22;15734;50.904;6.922;2023-04-03T06:10:49;3.00;99.90
28524;DHT22;15734;50.904;6.922;2023-04-03T06:13:15;3.10;99.90
28524;DHT22;15734;50.904;6.922;2023-04-03T06:15:41;3.10;99.90
28524;DHT22;15734;50.904;6.922;2023-04-03T06:18:06;3.10;99.90
28524;DHT22;15734;50.904;6.922;2023-04-03T06:20:32;3.20;99.90
28524;DHT22;15734;50.904;6.922;2023-04-03T06:22:57;3.30;99.90
28524;DHT22;15734;50.904;6.922;2023-04-03T06:25:23;3.40;99.90
28524;DHT22;15734;50.904;6.922;2023-04-03T06:27:48;3.40;99.90
28524;DHT22;15734;50.904;6.922;2023-04-03T06:30:14;3.40;99.90
28524;DHT22;15734;50.904;6.922;2023-04-03T06:32:39;3.50;99.90
28524;DHT22;15734;50.904;6.922;2023-04-03T06:35:05;3.50;99.90
28524;DHT22;15734;50.904;6.922;2023-04-03T06:37:31;3.50;99.90
28524;DHT22;15734;50.904;6.922;2023-04-03T06:39:57;3.50;99.90
28524;DHT22;15734;50.904;6.922;2023-04-03T06:42:23;3.60;99.90
28524;DHT22;15734;50.904;6.922;2023-04-03T06:44:49;3.60;99.90
28524;DHT22;15734;50.904;6.922;2023-04-03T06:47:15;3.60;99.90
28524;DHT22;15734;50.904;6.922;2023-04-03T06:49:41;3.70;99.90
28524;DHT22;15734;50.904;6.922;2023-04-03T06:52:07;3.70;99.90
28524;DHT22;15734;50.904;6.922;2023-04-03T06:54:32;3.80;99.90
28524;DHT22;15734;50.904;6.922;2023-04-03T06:56:58;3.90;99.90
28524;DHT22;15734;50.904;6.922;2023-04-03T06:59:24;3.90;99.90
28524;DHT22;15734;50.904;6.922;2023-04-03T07:01:49;3.90;99.90
28524;DHT22;15734;50.904;6.922;2023-04-03T07:04:15;4.00;99.90
28524;DHT22;15734;50.904;6.922;2023-04-03T07:06:41;4.10;99.90
28524;DHT22;15734;50.904;6.922;2023-04-03T07:09:08;4.10;99.90
28524;DHT22;15734;50.904;6.922;2023-04-03T07:11:34;4.20;99.90
28524;DHT22;15734;50.904;6.922;2023-04-03T07:14:00;4.20;99.90
28524;DHT22;15734;50.904;6.922;2023-04-03T07:16:25;4.30;99.90
28524;DHT22;15734;50.904;6.922;2023-04-03T07:18:50;4.40;99.90
28524;DHT22;15734;50.904;6.922;2023-04-03T07:21:16;4.40;99.90
28524;DHT22;15734;50.904;6.922;2023-04-03T07:23:42;4.50;99.90
28524;DHT22;15734;50.904;6.922;2023-04-03T07:26:07;4.60;99.90
28524;DHT22;15734;50.904;6.922;2023-04-03T07:28:35;4.70;99.90
28524;DHT22;15734;50.904;6.922;2023-04-03T07:31:08;4.70;99.90
28524;DHT22;15734;50.904;6.922;2023-04-03T07:33:37;4.80;99.90
28524;DHT22;15734;50.904;6.922;2023-04-03T07:36:03;4.80;99.90
28524;DHT22;15734;50.904;6.922;2023-04-03T07:38:28;4.90;99.90
28524;DHT22;15734;50.904;6.922;2023-04-03T07:40:54;4.90;99.90
28524;DHT22;15734;50.904;6.922;2023-04-03T07:43:20;4.90;99.90
28524;DHT22;15734;50.904;6.922;2023-04-03T07:45:46;5.00;99.90
28524;DHT22;15734;50.904;6.922;2023-04-03T07:48:15;5.00;99.90
28524;DHT22;15734;50.904;6.922;2023-04-03T07:50:41;5.10;99.90
28524;DHT22;15734;50.904;6.922;2023-04-03T07:53:07;5.10;99.90
28524;DHT22;15734;50.904;6.922;2023-04-03T07:55:33;5.20;99.90
28524;DHT22;15734;50.904;6.922;2023-04-03T07:57:58;5.20;99.90
28524;DHT22;15734;50.904;6.922;2023-04-03T08:00:24;5.30;99.90
28524;DHT22;15734;50.904;6.922;2023-04-03T08:02:50;5.30;99.90
28524;DHT22;15734;50.904;6.922;2023-04-03T08:05:17;5.30;99.90
28524;DHT22;15734;50.904;6.922;2023-04-03T08:07:43;5.40;99.90
28524;DHT22;15734;50.904;6.922;2023-04-03T08:10:08;5.50;99.90
28524;DHT22;15734;50.904;6.922;2023-04-03T08:12:34;5.50;99.90
28524;DHT22;15734;50.904;6.922;2023-04-03T08:15:00;5.50;99.90
28524;DHT22;15734;50.904;6.922;2023-04-03T08:17:26;5.60;99.90
28524;DHT22;15734;50.904;6.922;2023-04-03T08:19:51;5.60;99.90
28524;DHT22;15734;50.904;6.922;2023-04-03T08:22:17;5.60;99.90
28524;DHT22;15734;50.904;6.922;2023-04-03T08:24:42;5.70;99.90
28524;DHT22;15734;50.904;6.922;2023-04-03T08:27:08;5.70;99.90
28524;DHT22;15734;50.904;6.922;2023-04-03T08:29:33;5.80;99.90
28524;DHT22;15734;50.904;6.922;2023-04-03T08:31:59;5.80;99.90
28524;DHT22;15734;50.904;6.922;2023-04-03T08:34:24;5.80;99.90
28524;DHT22;15734;50.904;6.922;2023-04-03T08:36:50;5.90;99.90
28524;DHT22;15734;50.904;6.922;2023-04-03T08:39:15;5.90;99.90
28524;DHT22;15734;50.904;6.922;2023-04-03T08:41:42;6.10;99.90
28524;DHT22;15734;50.904;6.922;2023-04-03T08:44:25;6.10;99.90
28524;DHT22;15734;50.904;6.922;2023-04-03T08:47:01;6.10;99.90
28524;DHT22;15734;50.904;6.922;2023-04-03T08:51:53;6.30;99.90
28524;DHT22;15734;50.904;6.922;2023-04-03T08:54:22;6.40;99.90
28524;DHT22;15734;50.904;6.922;2023-04-03T08:56:48;6.50;99.90
28524;DHT22;15734;50.904;6.922;2023-04-03T08:59:16;6.60;99.90
28524;DHT22;15734;50.904;6.922;2023-04-03T09:01:44;6.70;99.90
28524;DHT22;15734;50.904;6.922;2023-04-03T09:04:14;6.90;99.90
28524;DHT22;15734;50.904;6.922;2023-04-03T09:06:42;6.90;99.90
28524;DHT22;15734;50.904;6.922;2023-04-03T09:11:58;7.00;99.90
28524;DHT22;15734;50.904;6.922;2023-04-03T09:14:26;7.00;99.90
28524;DHT22;15734;50.904;6.922;2023-04-03T09:21:58;7.40;99.90
28524;DHT22;15734;50.904;6.922;2023-04-03T09:24:24;7.40;99.90
28524;DHT22;15734;50.904;6.922;2023-04-03T09:26:54;7.40;99.90
28524;DHT22;15734;50.904;6.922;2023-04-03T09:29:22;7.60;99.90
28524;DHT22;15734;50.904;6.922;2023-04-03T09:31:52;7.90;99.90
28524;DHT22;15734;50.904;6.922;2023-04-03T09:36:52;8.00;99.90
28524;DHT22;15734;50.904;6.922;2023-04-03T09:39:23;8.20;99.90
28524;DHT22;15734;50.904;6.922;2023-04-03T09:42:00;8.30;99.90
28524;DHT22;15734;50.904;6.922;2023-04-03T09:44:30;8.30;99.90
28524;DHT22;15734;50.904;6.922;2023-04-03T09:46:56;8.50;99.90
28524;DHT22;15734;50.904;6.922;2023-04-03T09:49:22;8.40;99.90
28524;DHT22;15734;50.904;6.922;2023-04-03T09:51:47;8.60;99.90
28524;DHT22;15734;50.904;6.922;2023-04-03T09:56:57;8.70;99.90
28524;DHT22;15734;50.904;6.922;2023-04-03T09:59:26;8.90;99.90
28524;DHT22;15734;50.904;6.922;2023-04-03T10:02:30;9.10;99.90
28524;DHT22;15734;50.904;6.922;2023-04-03T10:04:43;9.50;99.90
28524;DHT22;15734;50.904;6.922;2023-04-03T10:10:18;9.30;98.80
28524;DHT22;15734;50.904;6.922;2023-04-03T10:12:45;9.70;97.00
28524;DHT22;15734;50.904;6.922;2023-04-03T10:15:14;9.80;94.90
28524;DHT22;15734;50.904;6.922;2023-04-03T10:22:56;10.10;92.20
28524;DHT22;15734;50.904;6.922;2023-04-03T10:28:09;10.20;92.80
28524;DHT22;15734;50.904;6.922;2023-04-03T10:38:23;10.70;85.10
28524;DHT22;15734;50.904;6.922;2023-04-03T10:56:37;10.70;83.30
28524;DHT22;15734;50.904;6.922;2023-04-03T11:01:49;11.10;80.00
28524;DHT22;15734;50.904;6.922;2023-04-03T11:04:17;11.30;77.50
28524;DHT22;15734;50.904;6.922;2023-04-03T11:06:51;11.40;82.60
28524;DHT22;15734;50.904;6.922;2023-04-03T11:09:23;11.70;81.60
28524;DHT22;15734;50.904;6.922;2023-04-03T11:11:51;11.70;79.10
28524;DHT22;15734;50.904;6.922;2023-04-03T11:14:26;11.50;78.70
28524;DHT22;15734;50.904;6.922;2023-04-03T11:16:55;11.90;83.10
28524;DHT22;15734;50.904;6.922;2023-04-03T11:19:31;12.10;78.10
28524;DHT22;15734;50.904;6.922;2023-04-03T11:24:33;12.20;78.00
28524;DHT22;15734;50.904;6.922;2023-04-03T11:27:01;12.20;72.70
28524;DHT22;15734;50.904;6.922;2023-04-03T11:29:31;12.30;75.40
28524;DHT22;15734;50.904;6.922;2023-04-03T11:34:44;12.70;71.10
28524;DHT22;15734;50.904;6.922;2023-04-03T11:37:25;12.60;72.00
28524;DHT22;15734;50.904;6.922;2023-04-03T11:39:54;12.30;71.70
28524;DHT22;15734;50.904;6.922;2023-04-03T11:42:24;12.20;75.90
28524;DHT22;15734;50.904;6.922;2023-04-03T11:44:52;12.10;71.60
28524;DHT22;15734;50.904;6.922;2023-04-03T11:47:44;12.30;68.50
28524;DHT22;15734;50.904;6.922;2023-04-03T11:52:56;12.40;72.80
28524;DHT22;15734;50.904;6.922;2023-04-03T12:02:59;13.00;72.00
28524;DHT22;15734;50.904;6.922;2023-04-03T12:05:26;12.80;67.70
28524;DHT22;15734;50.904;6.922;2023-04-03T12:10:38;13.20;74.60
28524;DHT22;15734;50.904;6.922;2023-04-03T12:13:12;12.90;72.00
28524;DHT22;15734;50.904;6.922;2023-04-03T12:25:51;13.10;65.60
28524;DHT22;15734;50.904;6.922;2023-04-03T12:28:24;12.90;65.00
28524;DHT22;15734;50.904;6.922;2023-04-03T12:30:49;13.20;63.90
28524;DHT22;15734;50.904;6.922;2023-04-03T12:36:23;14.10;64.70
28524;DHT22;15734;50.904;6.922;2023-04-03T12:41:37;14.40;61.70
28524;DHT22;15734;50.904;6.922;2023-04-03T12:44:12;14.60;58.90
28524;DHT22;15734;50.904;6.922;2023-04-03T12:46:51;14.40;58.10
28524;DHT22;15734;50.904;6.922;2023-04-03T12:51:45;14.60;58.30
28524;DHT22;15734;50.904;6.922;2023-04-03T12:54:29;13.90;66.20
28524;DHT22;15734;50.904;6.922;2023-04-03T12:57:12;14.00;64.50
28524;DHT22;15734;50.904;6.922;2023-04-03T12:59:38;13.90;64.70
28524;DHT22;15734;50.904;6.922;2023-04-03T13:02:10;13.70;67.40
28524;DHT22;15734;50.904;6.922;2023-04-03T13:04:41;13.80;62.40
28524;DHT22;15734;50.904;6.922;2023-04-03T13:07:17;14.40;62.30
28524;DHT22;15734;50.904;6.922;2023-04-03T13:09:43;14.10;62.90
28524;DHT22;15734;50.904;6.922;2023-04-03T13:12:13;14.90;61.20
28524;DHT22;15734;50.904;6.922;2023-04-03T13:14:38;15.30;58.30
28524;DHT22;15734;50.904;6.922;2023-04-03T13:17:10;15.20;61.40
28524;DHT22;15734;50.904;6.922;2023-04-03T13:19:37;15.10;60.70
28524;DHT22;15734;50.904;6.922;2023-04-03T13:22:04;14.60;61.20
28524;DHT22;15734;50.904;6.922;2023-04-03T13:24:30;14.50;61.70
28524;DHT22;15734;50.904;6.922;2023-04-03T13:26:57;14.40;60.80
28524;DHT22;15734;50.904;6.922;2023-04-03T13:29:27;14.70;59.00
28524;DHT22;15734;50.904;6.922;2023-04-03T13:31:53;15.40;57.60
28524;DHT22;15734;50.904;6.922;2023-04-03T13:34:19;15.20;56.40
28524;DHT22;15734;50.904;6.922;2023-04-03T13:36:54;14.90;59.20
28524;DHT22;15734;50.904;6.922;2023-04-03T13:39:24;14.80;57.80
28524;DHT22;15734;50.904;6.922;2023-04-03T13:41:51;14.50;58.20
28524;DHT22;15734;50.904;6.922;2023-04-03T13:46:42;15.40;55.40
28524;DHT22;15734;50.904;6.922;2023-04-03T13:49:17;15.20;56.30
28524;DHT22;15734;50.904;6.922;2023-04-03T13:51:42;15.20;55.10
28524;DHT22;15734;50.904;6.922;2023-04-03T13:57:03;14.70;64.80
28524;DHT22;15734;50.904;6.922;2023-04-03T13:59:36;14.60;60.40
28524;DHT22;15734;50.904;6.922;2023-04-03T14:04:28;15.30;59.90
28524;DHT22;15734;50.904;6.922;2023-04-03T14:06:54;14.90;59.90
28524;DHT22;15734;50.904;6.922;2023-04-03T14:09:20;15.10;56.50
28524;DHT22;15734;50.904;6.922;2023-04-03T14:11:47;14.90;57.90
28524;DHT22;15734;50.904;6.922;2023-04-03T14:14:17;15.00;58.20
28524;DHT22;15734;50.904;6.922;2023-04-03T14:16:44;15.00;57.30
28524;DHT22;15734;50.904;6.922;2023-04-03T14:19:17;14.70;60.60
28524;DHT22;15734;50.904;6.922;2023-04-03T14:21:43;14.90;59.70
28524;DHT22;15734;50.904;6.922;2023-04-03T14:24:09;15.00;54.90
28524;DHT22;15734;50.904;6.922;2023-04-03T14:26:36;14.80;57.10
28524;DHT22;15734;50.904;6.922;2023-04-03T14:29:02;14.90;55.70
28524;DHT22;15734;50.904;6.922;2023-04-03T14:31:27;14.60;56.10
28524;DHT22;15734;50.904;6.922;2023-04-03T14:33:53;14.30;58.20
28524;DHT22;15734;50.904;6.922;2023-04-03T14:36:24;14.40;56.10
28524;DHT22;15734;50.904;6.922;2023-04-03T14:38:51;14.20;60.60
28524;DHT22;15734;50.904;6.922;2023-04-03T14:41:18;14.20;61.00
28524;DHT22;15734;50.904;6.922;2023-04-03T14:43:44;14.60;58.50
28524;DHT22;15734;50.904;6.922;2023-04-03T14:46:21;14.60;58.90
28524;DHT22;15734;50.904;6.922;2023-04-03T14:48:47;14.20;58.80
28524;DHT22;15734;50.904;6.922;2023-04-03T14:51:13;14.40;59.30
28524;DHT22;15734;50.904;6.922;2023-04-03T14:53:40;14.50;60.70
28524;DHT22;15734;50.904;6.922;2023-04-03T14:56:26;14.60;59.60
28524;DHT22;15734;50.904;6.922;2023-04-03T14:58:57;14.50;61.10
28524;DHT22;15734;50.904;6.922;2023-04-03T15:01:23;14.20;60.00
28524;DHT22;15734;50.904;6.922;2023-04-03T15:03:49;14.60;61.60
28524;DHT22;15734;50.904;6.922;2023-04-03T15:06:14;14.00;60.00
28524;DHT22;15734;50.904;6.922;2023-04-03T15:08:40;14.40;59.30
28524;DHT22;15734;50.904;6.922;2023-04-03T15:11:08;14.30;57.20
28524;DHT22;15734;50.904;6.922;2023-04-03T15:13:33;14.10;57.80
28524;DHT22;15734;50.904;6.922;2023-04-03T15:15:59;13.70;59.90
28524;DHT22;15734;50.904;6.922;2023-04-03T15:18:25;13.40;61.30
28524;DHT22;15734;50.904;6.922;2023-04-03T15:20:51;13.70;61.20
28524;DHT22;15734;50.904;6.922;2023-04-03T15:23:17;14.10;58.10
28524;DHT22;15734;50.904;6.922;2023-04-03T15:25:43;14.10;60.10
28524;DHT22;15734;50.904;6.922;2023-04-03T15:28:22;13.90;60.00
28524;DHT22;15734;50.904;6.922;2023-04-03T15:30:48;14.00;57.60
28524;DHT22;15734;50.904;6.922;2023-04-03T15:33:14;13.90;57.70
28524;DHT22;15734;50.904;6.922;2023-04-03T15:35:41;13.80;58.10
28524;DHT22;15734;50.904;6.922;2023-04-03T15:38:06;13.70;60.40
28524;DHT22;15734;50.904;6.922;2023-04-03T15:40:32;13.40;62.40
28524;DHT22;15734;50.904;6.922;2023-04-03T15:42:57;13.30;61.00
28524;DHT22;15734;50.904;6.922;2023-04-03T15:45:23;13.60;59.00
28524;DHT22;15734;50.904;6.922;2023-04-03T15:47:48;13.70;59.90
28524;DHT22;15734;50.904;6.922;2023-04-03T15:50:14;13.50;61.40
28524;DHT22;15734;50.904;6.922;2023-04-03T15:52:39;13.60;58.70
28524;DHT22;15734;50.904;6.922;2023-04-03T15:55:05;13.50;59.50
28524;DHT22;15734;50.904;6.922;2023-04-03T15:57:31;13.60;57.90
28524;DHT22;15734;50.904;6.922;2023-04-03T15:59:56;13.40;58.50
28524;DHT22;15734;50.904;6.922;2023-04-03T16:02:22;13.40;58.20
28524;DHT22;15734;50.904;6.922;2023-04-03T16:04:47;13.00;60.30
28524;DHT22;15734;50.904;6.922;2023-04-03T16:07:13;13.00;60.50
28524;DHT22;15734;50.904;6.922;2023-04-03T16:09:38;13.00;62.20
28524;DHT22;15734;50.904;6.922;2023-04-03T16:12:04;12.90;61.70
28524;DHT22;15734;50.904;6.922;2023-04-03T16:14:29;12.80;61.80
28524;DHT22;15734;50.904;6.922;2023-04-03T16:16:56;13.00;60.70
28524;DHT22;15734;50.904;6.922;2023-04-03T16:19:21;13.10;60.00
28524;DHT22;15734;50.904;6.922;2023-04-03T16:21:47;12.90;59.50
28524;DHT22;15734;50.904;6.922;2023-04-03T16:24:12;12.60;64.30
28524;DHT22;15734;50.904;6.922;2023-04-03T16:26:38;12.60;67.90
28524;DHT22;15734;50.904;6.922;2023-04-03T16:29:03;12.50;67.80
28524;DHT22;15734;50.904;6.922;2023-04-03T16:31:29;12.30;67.20
28524;DHT22;15734;50.904;6.922;2023-04-03T16:33:56;12.20;66.90
28524;DHT22;15734;50.904;6.922;2023-04-03T16:36:23;12.10;63.20
28524;DHT22;15734;50.904;6.922;2023-04-03T16:38:48;11.90;63.40
28524;DHT22;15734;50.904;6.922;2023-04-03T16:41:14;11.70;67.80
28524;DHT22;15734;50.904;6.922;2023-04-03T16:43:39;11.60;63.90
28524;DHT22;15734;50.904;6.922;2023-04-03T16:46:05;11.40;66.80
28524;DHT22;15734;50.904;6.922;2023-04-03T16:48:30;11.20;69.30
28524;DHT22;15734;50.904;6.922;2023-04-03T16:50:56;11.20;67.30
28524;DHT22;15734;50.904;6.922;2023-04-03T16:53:22;11.20;65.70
28524;DHT22;15734;50.904;6.922;2023-04-03T16:55:48;11.10;66.30
28524;DHT22;15734;50.904;6.922;2023-04-03T16:58:13;11.00;65.80
28524;DHT22;15734;50.904;6.922;2023-04-03T17:00:40;11.00;68.40
28524;DHT22;15734;50.904;6.922;2023-04-03T17:03:05;10.70;70.60
28524;DHT22;15734;50.904;6.922;2023-04-03T17:05:31;10.70;71.70
28524;DHT22;15734;50.904;6.922;2023-04-03T17:07:56;10.70;70.50
28524;DHT22;15734;50.904;6.922;2023-04-03T17:10:22;10.70;69.10
28524;DHT22;15734;50.904;6.922;2023-04-03T17:12:48;10.60;68.70
28524;DHT22;15734;50.904;6.922;2023-04-03T17:15:13;10.30;70.10
28524;DHT22;15734;50.904;6.922;2023-04-03T17:17:39;10.30;72.90
28524;DHT22;15734;50.904;6.922;2023-04-03T17:20:05;10.20;74.00